sensor_id;sensor_type;location;lat;lon;timestamp;pressure;altitude;pressure_sealevel;temperature;humidity
7730;BME280;3908;52.310;7.230;2024-03-02T08:44:10;51667.38;;;-145.83;61.93
7730;BME280;3908;52.310;7.230;2024-03-02T08:49:33;51696.75;;;-145.83;62.51
7730;BME280;3908;52.310;7.230;2024-03-02T14:10:39;51706.53;;;-145.83;49.21
7730;BME280;3908;52.310;7.230;2024-03-02T14:13:26;51722.16;;;-145.83;48.75
7730;BME280;3908;52.310;7.230;2024-03-02T14:16:13;51712.38;;;-145.83;49.63
7730;BME280;3908;52.310;7.230;2024-03-02T14:19:00;51712.38;;;-145.83;49.18
7730;BME280;3908;52.310;7.230;2024-03-02T14:21:49;51731.94;;;-145.83;49.21
7730;BME280;3908;52.310;7.230;2024-03-02T14:24:36;51743.69;;;-145.83;48.36
7730;BME280;3908;52.310;7.230;2024-03-02T14:27:25;51730.00;;;-145.83;48.33
7730;BME280;3908;52.310;7.230;2024-03-02T14:30:13;51712.38;;;-145.83;49.35
7730;BME280;3908;52.310;7.230;2024-03-02T14:33:00;51718.25;;;-145.83;49.35
7730;BME280;3908;52.310;7.230;2024-03-02T14:35:47;51753.47;;;-145.83;49.34
7730;BME280;3908;52.310;7.230;2024-03-02T14:38:34;51761.31;;;-145.83;49.06
7730;BME280;3908;52.310;7.230;2024-03-02T14:41:21;51720.22;;;-145.83;48.92
7730;BME280;3908;52.310;7.230;2024-03-02T14:44:11;51726.09;;;-145.83;48.54
7730;BME280;3908;52.310;7.230;2024-03-02T14:46:58;51726.09;;;-145.83;48.77
7730;BME280;3908;52.310;7.230;2024-03-02T14:49:45;51728.03;;;-145.83;48.87
7730;BME280;3908;52.310;7.230;2024-03-02T14:52:32;51745.66;;;-145.83;48.00
7730;BME280;3908;52.310;7.230;2024-03-02T14:55:20;51751.53;;;-145.83;47.87
7730;BME280;3908;52.310;7.230;2024-03-02T14:58:07;51769.13;;;-145.83;47.30
7730;BME280;3908;52.310;7.230;2024-03-02T15:00:57;51718.25;;;-145.83;47.72
7730;BME280;3908;52.310;7.230;2024-03-02T15:03:44;51741.75;;;-145.83;48.76
7730;BME280;3908;52.310;7.230;2024-03-02T15:06:31;51720.22;;;-145.83;48.74
7730;BME280;3908;52.310;7.230;2024-03-02T15:09:18;51743.69;;;-145.83;48.91
7730;BME280;3908;52.310;7.230;2024-03-02T15:12:06;51704.56;;;-145.83;50.00
7730;BME280;3908;52.310;7.230;2024-03-02T15:14:55;51718.25;;;-145.83;50.32
7730;BME280;3908;52.310;7.230;2024-03-02T15:17:44;51755.44;;;-145.83;49.59
7730;BME280;3908;52.310;7.230;2024-03-02T15:20:31;51706.53;;;-145.83;51.04
7730;BME280;3908;52.310;7.230;2024-03-02T15:23:18;51690.88;;;-145.83;50.10
7730;BME280;3908;52.310;7.230;2024-03-02T15:26:06;51704.56;;;-145.83;50.72
7730;BME280;3908;52.310;7.230;2024-03-02T15:28:55;51708.47;;;-145.83;50.20
7730;BME280;3908;52.310;7.230;2024-03-02T15:31:44;51696.75;;;-145.83;49.89
7730;BME280;3908;52.310;7.230;2024-03-02T15:34:33;51726.09;;;-145.83;50.54
7730;BME280;3908;52.310;7.230;2024-03-02T15:37:20;51741.75;;;-145.83;51.18
7730;BME280;3908;52.310;7.230;2024-03-02T15:40:08;51720.22;;;-145.83;50.65
7730;BME280;3908;52.310;7.230;2024-03-02T15:42:56;51735.88;;;-145.83;50.11
7730;BME280;3908;52.310;7.230;2024-03-02T15:45:43;51700.66;;;-145.83;49.23
7730;BME280;3908;52.310;7.230;2024-03-02T15:48:30;51718.25;;;-145.83;49.53
7730;BME280;3908;52.310;7.230;2024-03-02T15:51:19;51726.09;;;-145.83;50.04
7730;BME280;3908;52.310;7.230;2024-03-02T15:54:07;51716.31;;;-145.83;50.75
7730;BME280;3908;52.310;7.230;2024-03-02T15:56:54;51730.00;;;-145.83;51.07
7730;BME280;3908;52.310;7.230;2024-03-02T15:59:41;51720.22;;;-145.83;50.97
7730;BME280;3908;52.310;7.230;2024-03-02T16:02:28;51718.25;;;-145.83;52.08
7730;BME280;3908;52.310;7.230;2024-03-02T16:05:15;51724.13;;;-145.83;50.99
7730;BME280;3908;52.310;7.230;2024-03-02T16:08:06;51704.56;;;-145.83;52.27
7730;BME280;3908;52.310;7.230;2024-03-02T16:10:53;51720.22;;;-145.83;52.15
7730;BME280;3908;52.310;7.230;2024-03-02T16:13:40;51716.31;;;-145.83;51.88
7730;BME280;3908;52.310;7.230;2024-03-02T16:16:27;51726.09;;;-145.83;52.20
7730;BME280;3908;52.310;7.230;2024-03-02T16:19:14;51749.56;;;-145.83;51.85
7730;BME280;3908;52.310;7.230;2024-03-02T16:22:02;51714.34;;;-145.83;52.72
7730;BME280;3908;52.310;7.230;2024-03-02T16:24:53;51704.56;;;-145.83;52.31
7730;BME280;3908;52.310;7.230;2024-03-02T16:27:40;51704.56;;;-145.83;52.56
7730;BME280;3908;52.310;7.230;2024-03-02T16:30:28;51706.53;;;-145.83;52.76
7730;BME280;3908;52.310;7.230;2024-03-02T16:33:15;51686.94;;;-145.83;52.93
7730;BME280;3908;52.310;7.230;2024-03-02T16:36:03;51665.44;;;-145.83;51.74
7730;BME280;3908;52.310;7.230;2024-03-02T16:38:50;51714.34;;;-145.83;53.19
7730;BME280;3908;52.310;7.230;2024-03-02T16:41:38;51655.66;;;-145.83;53.18
7730;BME280;3908;52.310;7.230;2024-03-02T16:44:28;51720.22;;;-145.83;53.88
7730;BME280;3908;52.310;7.230;2024-03-02T16:47:15;51681.09;;;-145.83;54.27
7730;BME280;3908;52.310;7.230;2024-03-02T16:50:03;51712.38;;;-145.83;53.59
7730;BME280;3908;52.310;7.230;2024-03-02T16:52:53;51724.13;;;-145.83;54.11
7730;BME280;3908;52.310;7.230;2024-03-02T16:55:41;51728.03;;;-145.83;55.00
7730;BME280;3908;52.310;7.230;2024-03-02T16:58:29;51712.38;;;-145.83;55.13
7730;BME280;3908;52.310;7.230;2024-03-02T17:01:16;51708.47;;;-145.83;55.65
7730;BME280;3908;52.310;7.230;2024-03-02T17:04:04;51663.47;;;-145.83;56.00
7730;BME280;3908;52.310;7.230;2024-03-02T17:06:51;51683.03;;;-145.83;55.77
7730;BME280;3908;52.310;7.230;2024-03-02T17:09:38;51694.78;;;-145.83;56.11
7730;BME280;3908;52.310;7.230;2024-03-02T17:12:26;51653.69;;;-145.83;55.23
7730;BME280;3908;52.310;7.230;2024-03-02T17:15:15;51675.22;;;-145.83;55.47
7730;BME280;3908;52.310;7.230;2024-03-02T17:18:02;51657.59;;;-145.83;56.33
7730;BME280;3908;52.310;7.230;2024-03-02T17:20:49;51692.81;;;-145.83;56.60
7730;BME280;3908;52.310;7.230;2024-03-02T17:23:36;51720.22;;;-145.83;56.59
7730;BME280;3908;52.310;7.230;2024-03-02T17:26:23;51671.31;;;-145.83;57.14
7730;BME280;3908;52.310;7.230;2024-03-02T17:29:10;51661.53;;;-145.83;57.10
7730;BME280;3908;52.310;7.230;2024-03-02T17:31:59;51675.22;;;-145.83;57.01
7730;BME280;3908;52.310;7.230;2024-03-02T17:34:46;51681.09;;;-145.83;57.20
7730;BME280;3908;52.310;7.230;2024-03-02T17:37:33;51690.88;;;-145.83;57.33
7730;BME280;3908;52.310;7.230;2024-03-02T17:40:23;51679.13;;;-145.83;57.54
7730;BME280;3908;52.310;7.230;2024-03-02T17:43:10;51673.25;;;-145.83;57.82
7730;BME280;3908;52.310;7.230;2024-03-02T17:45:58;51663.47;;;-145.83;57.47
7730;BME280;3908;52.310;7.230;2024-03-02T17:48:46;51688.91;;;-145.83;58.05
7730;BME280;3908;52.310;7.230;2024-03-02T17:51:33;51675.22;;;-145.83;58.14
7730;BME280;3908;52.310;7.230;2024-03-02T17:54:21;51722.16;;;-145.83;58.05
7730;BME280;3908;52.310;7.230;2024-03-02T17:57:08;51673.25;;;-145.83;58.03
7730;BME280;3908;52.310;7.230;2024-03-02T17:59:55;51683.03;;;-145.83;58.47
7730;BME280;3908;52.310;7.230;2024-03-02T18:02:43;51649.78;;;-145.83;58.46
7730;BME280;3908;52.310;7.230;2024-03-02T18:05:31;51663.47;;;-145.83;58.73
7730;BME280;3908;52.310;7.230;2024-03-02T18:08:18;51688.91;;;-145.83;58.70
7730;BME280;3908;52.310;7.230;2024-03-02T18:11:06;51696.75;;;-145.83;58.98
7730;BME280;3908;52.310;7.230;2024-03-02T18:13:53;51657.59;;;-145.83;59.12
7730;BME280;3908;52.310;7.230;2024-03-02T18:16:40;51683.03;;;-145.83;58.84
7730;BME280;3908;52.310;7.230;2024-03-02T18:19:27;51638.03;;;-145.83;59.10
7730;BME280;3908;52.310;7.230;2024-03-02T18:22:19;51655.66;;;-145.83;59.13
7730;BME280;3908;52.310;7.230;2024-03-02T18:25:07;51671.31;;;-145.83;59.59
7730;BME280;3908;52.310;7.230;2024-03-02T18:27:54;51659.56;;;-145.83;59.61
7730;BME280;3908;52.310;7.230;2024-03-02T18:30:41;51692.81;;;-145.83;59.51
7730;BME280;3908;52.310;7.230;2024-03-02T18:33:29;51671.31;;;-145.83;59.86
7730;BME280;3908;52.310;7.230;2024-03-02T18:36:16;51671.31;;;-145.83;59.60
7730;BME280;3908;52.310;7.230;2024-03-02T18:39:04;51663.47;;;-145.83;59.78
7730;BME280;3908;52.310;7.230;2024-03-02T18:41:52;51655.66;;;-145.83;60.01
7730;BME280;3908;52.310;7.230;2024-03-02T18:44:39;51692.81;;;-145.83;60.08
7730;BME280;3908;52.310;7.230;2024-03-02T18:47:27;51671.31;;;-145.83;60.10
7730;BME280;3908;52.310;7.230;2024-03-02T18:50:14;51692.81;;;-145.83;60.02
7730;BME280;3908;52.310;7.230;2024-03-02T18:53:01;51675.22;;;-145.83;60.42
7730;BME280;3908;52.310;7.230;2024-03-02T18:55:49;51685.00;;;-145.83;60.48
7730;BME280;3908;52.310;7.230;2024-03-02T18:58:36;51661.53;;;-145.83;60.99
7730;BME280;3908;52.310;7.230;2024-03-02T19:01:23;51667.38;;;-145.83;61.23
7730;BME280;3908;52.310;7.230;2024-03-02T19:04:10;51651.75;;;-145.83;61.11
7730;BME280;3908;52.310;7.230;2024-03-02T19:06:57;51661.53;;;-145.83;61.15
7730;BME280;3908;52.310;7.230;2024-03-02T19:09:44;51655.66;;;-145.83;61.02
7730;BME280;3908;52.310;7.230;2024-03-02T19:12:33;51690.88;;;-145.83;61.71
7730;BME280;3908;52.310;7.230;2024-03-02T19:15:20;51651.75;;;-145.83;61.66
7730;BME280;3908;52.310;7.230;2024-03-02T19:18:07;51645.88;;;-145.83;62.12
7730;BME280;3908;52.310;7.230;2024-03-02T19:20:54;51643.91;;;-145.83;62.04
7730;BME280;3908;52.310;7.230;2024-03-02T19:23:42;51690.88;;;-145.83;62.28
7730;BME280;3908;52.310;7.230;2024-03-02T19:26:29;51636.09;;;-145.83;62.36
7730;BME280;3908;52.310;7.230;2024-03-02T19:29:17;51679.13;;;-145.83;62.87
7730;BME280;3908;52.310;7.230;2024-03-02T19:32:05;51645.88;;;-145.83;62.79
7730;BME280;3908;52.310;7.230;2024-03-02T19:34:52;51647.81;;;-145.83;62.78
7730;BME280;3908;52.310;7.230;2024-03-02T19:37:39;51681.09;;;-145.83;62.71
7730;BME280;3908;52.310;7.230;2024-03-02T19:40:26;51640.00;;;-145.83;62.89
7730;BME280;3908;52.310;7.230;2024-03-02T19:43:13;51685.00;;;-145.83;63.05
7730;BME280;3908;52.310;7.230;2024-03-02T19:46:04;51683.03;;;-145.83;62.67
7730;BME280;3908;52.310;7.230;2024-03-02T19:48:51;51655.66;;;-145.83;62.66
7730;BME280;3908;52.310;7.230;2024-03-02T19:51:39;51683.03;;;-145.83;62.51
7730;BME280;3908;52.310;7.230;2024-03-02T19:54:26;51641.94;;;-145.83;62.54
7730;BME280;3908;52.310;7.230;2024-03-02T19:57:13;51673.25;;;-145.83;62.42
7730;BME280;3908;52.310;7.230;2024-03-02T20:00:00;51685.00;;;-145.83;62.35
7730;BME280;3908;52.310;7.230;2024-03-02T20:02:49;51683.03;;;-145.83;62.93
7730;BME280;3908;52.310;7.230;2024-03-02T20:05:36;51671.31;;;-145.83;62.58
7730;BME280;3908;52.310;7.230;2024-03-02T20:08:24;51600.88;;;-145.83;62.47
7730;BME280;3908;52.310;7.230;2024-03-02T20:11:12;51632.16;;;-145.83;62.47
7730;BME280;3908;52.310;7.230;2024-03-02T20:13:59;51665.44;;;-145.83;62.39
7730;BME280;3908;52.310;7.230;2024-03-02T20:16:46;51669.34;;;-145.83;62.63
7730;BME280;3908;52.310;7.230;2024-03-02T20:19:38;51667.38;;;-145.83;62.71
7730;BME280;3908;52.310;7.230;2024-03-02T20:22:25;51647.81;;;-145.83;62.73
7730;BME280;3908;52.310;7.230;2024-03-02T20:25:12;51626.31;;;-145.83;62.45
7730;BME280;3908;52.310;7.230;2024-03-02T20:28:01;51681.09;;;-145.83;62.18
7730;BME280;3908;52.310;7.230;2024-03-02T20:30:49;51665.44;;;-145.83;62.55
7730;BME280;3908;52.310;7.230;2024-03-02T20:33:36;51669.34;;;-145.83;62.01
7730;BME280;3908;52.310;7.230;2024-03-02T20:36:24;51653.69;;;-145.83;61.93
7730;BME280;3908;52.310;7.230;2024-03-02T20:39:12;51647.81;;;-145.83;62.22
7730;BME280;3908;52.310;7.230;2024-03-02T20:41:59;51671.31;;;-145.83;62.20
7730;BME280;3908;52.310;7.230;2024-03-02T20:44:46;51647.81;;;-145.83;61.98
7730;BME280;3908;52.310;7.230;2024-03-02T20:47:33;51653.69;;;-145.83;62.28
7730;BME280;3908;52.310;7.230;2024-03-02T20:50:20;51663.47;;;-145.83;62.60
7730;BME280;3908;52.310;7.230;2024-03-02T20:53:08;51655.66;;;-145.83;62.19
7730;BME280;3908;52.310;7.230;2024-03-02T20:55:55;51640.00;;;-145.83;61.96
7730;BME280;3908;52.310;7.230;2024-03-02T20:58:42;51649.78;;;-145.83;61.93
7730;BME280;3908;52.310;7.230;2024-03-02T21:01:30;51661.53;;;-145.83;61.63
7730;BME280;3908;52.310;7.230;2024-03-02T21:04:17;51643.91;;;-145.83;61.86
7730;BME280;3908;52.310;7.230;2024-03-02T21:07:04;51671.31;;;-145.83;61.81
7730;BME280;3908;52.310;7.230;2024-03-02T21:09:53;51638.03;;;-145.83;62.07
7730;BME280;3908;52.310;7.230;2024-03-02T21:12:42;51667.38;;;-145.83;62.14
7730;BME280;3908;52.310;7.230;2024-03-02T21:15:30;51690.88;;;-145.83;61.92
7730;BME280;3908;52.310;7.230;2024-03-02T21:18:17;51708.47;;;-145.83;61.84
7730;BME280;3908;52.310;7.230;2024-03-02T21:21:05;51649.78;;;-145.83;61.96
7730;BME280;3908;52.310;7.230;2024-03-02T21:23:52;51636.09;;;-145.83;62.02
7730;BME280;3908;52.310;7.230;2024-03-02T21:26:41;51643.91;;;-145.83;62.06
7730;BME280;3908;52.310;7.230;2024-03-02T21:29:28;51645.88;;;-145.83;61.73
7730;BME280;3908;52.310;7.230;2024-03-02T21:32:15;51657.59;;;-145.83;61.39
7730;BME280;3908;52.310;7.230;2024-03-02T21:35:04;51649.78;;;-145.83;61.36
7730;BME280;3908;52.310;7.230;2024-03-02T21:37:52;51659.56;;;-145.83;61.35
7730;BME280;3908;52.310;7.230;2024-03-02T21:40:39;51653.69;;;-145.83;61.53
7730;BME280;3908;52.310;7.230;2024-03-02T21:43:27;51661.53;;;-145.83;61.56
7730;BME280;3908;52.310;7.230;2024-03-02T21:46:16;51685.00;;;-145.83;61.68
7730;BME280;3908;52.310;7.230;2024-03-02T21:49:04;51702.59;;;-145.83;61.76
7730;BME280;3908;52.310;7.230;2024-03-02T21:51:51;51665.44;;;-145.83;61.88
7730;BME280;3908;52.310;7.230;2024-03-02T21:54:39;51641.94;;;-145.83;61.77
7730;BME280;3908;52.310;7.230;2024-03-02T21:57:26;51653.69;;;-145.83;61.88
7730;BME280;3908;52.310;7.230;2024-03-02T22:00:15;51653.69;;;-145.83;61.70
7730;BME280;3908;52.310;7.230;2024-03-02T22:03:04;51645.88;;;-145.83;61.96
7730;BME280;3908;52.310;7.230;2024-03-02T22:05:51;51653.69;;;-145.83;61.82
7730;BME280;3908;52.310;7.230;2024-03-02T22:08:38;51620.44;;;-145.83;61.51
7730;BME280;3908;52.310;7.230;2024-03-02T22:11:26;51663.47;;;-145.83;61.91
7730;BME280;3908;52.310;7.230;2024-03-02T22:14:16;51685.00;;;-145.83;62.09
7730;BME280;3908;52.310;7.230;2024-03-02T22:17:05;51651.75;;;-145.83;62.32
7730;BME280;3908;52.310;7.230;2024-03-02T22:19:52;51649.78;;;-145.83;62.04
7730;BME280;3908;52.310;7.230;2024-03-02T22:22:39;51624.34;;;-145.83;62.33
7730;BME280;3908;52.310;7.230;2024-03-02T22:25:26;51657.59;;;-145.83;62.20
7730;BME280;3908;52.310;7.230;2024-03-02T22:28:13;51640.00;;;-145.83;62.50
7730;BME280;3908;52.310;7.230;2024-03-02T22:31:00;51653.69;;;-145.83;62.50
7730;BME280;3908;52.310;7.230;2024-03-02T22:33:49;51655.66;;;-145.83;62.36
7730;BME280;3908;52.310;7.230;2024-03-02T22:36:36;51640.00;;;-145.83;62.32
7730;BME280;3908;52.310;7.230;2024-03-02T22:39:23;51634.13;;;-145.83;62.58
7730;BME280;3908;52.310;7.230;2024-03-02T22:42:10;51671.31;;;-145.83;62.60
7730;BME280;3908;52.310;7.230;2024-03-02T22:44:57;51679.13;;;-145.83;63.00
7730;BME280;3908;52.310;7.230;2024-03-02T22:47:44;51645.88;;;-145.83;62.75
7730;BME280;3908;52.310;7.230;2024-03-02T22:50:33;51608.69;;;-145.83;62.74
7730;BME280;3908;52.310;7.230;2024-03-02T22:53:20;51663.47;;;-145.83;63.20
